Barcroft Research Lab Weather observations

Data are for 10 minute period ending at time listed.
 Day   Time   Solar   Ave.   Ave.  Ave.  Vector  Std.   Max.    Baro.    
  of    of     Rad.   Air    Rel.  Wind   Wind   Dev.   Wind   Press.    
Year   Day            Temp.  Hum.  Speed  Dir.   Dir.   Gust            
2016   (PST)  Kw/m2    F      %     mph   deg.   deg.    mph     mb.    
------------------------------------------------------------------------
 144    7:50     619   27.3    57    6.4   167    -99    11.1   636.70  
 144    8:00     652   27.0    60    6.6   164    -99    10.4   636.70  
 144    8:10     683   27.5    63    7.0   160    -99    11.1   636.90  
 144    8:20     715   28.4    63    7.3   149    -99    11.7   636.90  
 144    8:30     762   28.6    62    6.0   163    -99    11.4   636.90  
 144    8:40     765   27.7    63    8.0   163    -99    14.0   636.90  
 144    8:50     750   27.2    64    7.7   165    -99    14.0   636.90  
 144    9:00     762   27.3    64    6.4   167    -99    12.0   636.90  
 144    9:10     694   28.2    64    7.1   159    -99    13.6   636.90  
 144    9:20     766   27.9    63    5.8   172    -99    11.4   636.90  
 144    9:30     869   28.2    57    6.2   175    -99    14.3   636.90  
 144    9:40     787   27.9    55    5.1   190    -99    12.2   636.90  
 144    9:50     794   27.5    60    4.4   201    -99     9.9   636.90  
 144   10:00     974   29.3    58    4.2   185    -99     8.7   636.90  
 144   10:10     973   29.1    64    5.3   205    -99    10.8   637.00  
 144   10:20     755   28.7    65    5.5   215    -99    10.7   637.00  
 144   10:30    1001   29.1    63    4.9   191    -99     9.3   637.00  
 144   10:40     828   29.3    58    4.8   176    -99    11.5   637.00  
 144   10:50     927   29.3    60    5.1   174    -99    10.9   637.00  
 144   11:00     511   30.0    63    7.0   148    -99    12.7   637.00  
 144   11:10     424   28.9    70    6.1   134    -99    10.7   637.20  
 144   11:20     360   27.7    71    4.2   174    -99     9.0   637.20  
 144   11:30     549   28.9    71    5.2   157    -99    14.4   637.20  
 144   11:40     323   28.5    71    5.2   148    -99    10.2   637.20  
 144   11:50     440   28.1    71    4.4   143    -99     9.4   637.20  
 144   12:00     772   30.1    66    4.9   171    -99    10.2   637.20  
 144   12:10     416   28.8    64    3.4   158    -99     7.2   637.20  
 144   12:20    1027   31.4    60    5.3   162    -99    11.0   637.20  
 144   12:30     785   32.6    58    3.8   151    -99     8.3   637.20  
 144   12:40     741   31.3    61    3.6   140    -99     7.4   637.20  
 144   12:50    1032   34.3    51    4.1   151    -99     9.1   637.20  
 144   13:00     775   33.3    48    3.3   198    -99     7.0   637.20  
 144   13:10     604   30.8    52    5.6   253    -99    12.6   637.00  
 144   13:20     379   29.4    57    5.0   193    -99     9.9   637.00  
 144   13:30     363   28.7    53    6.2   239    -99    15.2   637.00  
 144   13:40     576   29.5    54    4.2   206    -99    12.2   637.00  
 144   13:50    1287   32.3    50    5.9   222    -99    10.4   637.00  
 144   14:00     857   35.1    52    3.2   150    -99     7.5   637.00  
 144   14:10    1225   34.4    48    4.5   237    -99    10.0   636.90  
 144   14:20     871   35.0    46    2.8   219    -99     6.6   636.90  
 144   14:30     742   34.6    45    1.5   204    -99    11.5   636.90  
 144   14:40     924   34.9    52    4.3   106    -99     7.6   636.90  
 144   14:50     707   32.2    56    3.1    87    -99     6.5   636.90  
 144   15:00     330   31.8    58    1.7   173    -99     4.9   636.90  
 144   15:10     232   29.7    64    3.9   170    -99     6.6   636.60  
 144   15:20     247   29.2    66    4.5   206    -99    11.0   636.60  
 144   15:30     129   28.2    65    4.6   209    -99    12.5   636.60  
 144   15:40      82   27.5    71    6.7   190    -99    14.4   636.60  
 144   15:50     103   26.1    83    6.7   153    -99    14.2   636.60  
 144   16:00     143   25.5    82    6.8   213    -99    13.6   636.60  
 144   16:10      68   26.0    75    9.6   235    -99    14.7   636.20  
 144   16:20      61   26.2    75    8.5   224    -99    16.8   636.20  
 144   16:30     104   26.5    74    7.1   203    -99    13.3   636.20  
 144   16:40      89   26.5    78    6.6   195    -99    14.5   636.20  
 144   16:50      78   25.4    84    5.3   170    -99    13.4   636.20  
 144   17:00      41   25.6    83    7.8   169    -99    14.2   636.20  
 144   17:10      27   24.0    94   10.8   160    -99    17.6   635.80  
 144   17:20      14   22.3    97    6.8   151    -99    10.4   635.80  
 144   17:30      10   21.5    97    3.1   289    -99     6.7   635.80  
 144   17:40      10   21.8    96    1.8   240    -99     5.8   635.80  
 144   17:50      12   22.3    97    5.3   126    -99    12.1   635.80  
 144   18:00      42   23.1    95    9.4   136    -99    15.4   635.80  
 144   18:10      27   23.1    94    8.7   116    -99    12.0   635.50  
 144   18:20      17   22.9    94   10.6   113    -99    14.0   635.50  
 144   18:30       7   22.7    95    9.9   105    -99    13.2   635.50  
 144   18:40       3   22.5    96    8.2   108    -99    11.3   635.50  
 144   18:50       2   22.4    98    9.4   103    -99    13.7   635.50  
 144   19:00       1   22.0    99    8.6   128    -99    11.8   635.50  
 144   19:10       1   21.8   100    9.3   113    -99    13.3   635.60  
 144   19:20       0   21.9   100    9.1    91    -99    13.7   635.60  
 144   19:30       0   21.9   100    8.8    90    -99    12.0   635.60  
 144   19:40       0   21.8   100    7.6    62    -99    11.1   635.60  
 144   19:50       0   21.8   100    5.6    64    -99     9.1   635.60  
 144   20:00       0   22.0   100    6.9    66    -99     8.9   635.60  
 144   20:10       0   21.8   100    7.2    56    -99    10.7   635.50  
 144   20:20       0   21.6   100    6.7    72    -99     8.8   635.50  
 144   20:30       0   21.3   100    5.4   106    -99     7.8   635.50  
 144   20:40       0   21.1   100    4.7   144    -99     6.6   635.50  
 144   20:50       0   20.9   100    4.5   183    -99     8.7   635.50  
 144   21:00       0   20.3   100    3.7   172    -99     8.0   635.50  
 144   21:10       0   20.0    99    7.3   220    -99    12.8   635.80  
 144   21:20       0   19.6    99    4.8   214    -99     7.5   635.80  
 144   21:30       0   20.1   100    3.9   193    -99     6.8   635.80  
 144   21:40       0   20.5   100    3.0   219    -99     5.2   635.80  
 144   21:50       0   20.7   100    2.6   254    -99     5.1   635.80  
 144   22:00       0   20.4   100    7.8   286    -99    11.0   635.80  
 144   22:10       0   20.0    99   11.3   284    -99    14.2   635.50  
 144   22:20       0   19.7    99   10.8   281    -99    13.7   635.50  
 144   22:30       0   19.5    99   10.0   287    -99    15.9   635.50  
 144   22:40       0   19.4    99    8.4   287    -99    10.4   635.50  
 144   22:50       0   19.4    99    7.6   296    -99    11.5   635.50  
 144   23:00       0   19.4    99    7.8   278    -99    12.3   635.50  
 144   23:10       0   19.3    99    8.3   294    -99     9.9   635.40  
 144   23:20       0   19.3    99    8.5   269    -99    11.3   635.40  
 144   23:30       0   19.0    99    9.9   254    -99    15.1   635.40  
 144   23:40       0   18.5    99   10.1   304    -99    12.6   635.40  
 144   23:50       0   18.4    99    9.4   282    -99    12.8   635.40  
 145    0:00       0   18.3    99   11.9   291    -99    15.6   635.40  
 145    0:10       0   18.2    99   12.1   286    -99    14.8   635.20  
 145    0:20       0   17.9    99   12.2   294    -99    14.6   635.20  
 145    0:30       0   17.8    99    9.8   288    -99    12.4   635.20  
 145    0:40       0   17.8    99    8.0   278    -99    11.7   635.20  
 145    0:50       0   17.8    99    9.9   258    -99    13.1   635.20  
 145    1:00       0   17.5    99   10.8   257    -99    16.7   635.20  
 145    1:10       0   17.3    99   11.2   280    -99    14.7   635.00  
 145    1:20       0   17.4    99   11.4   281    -99    15.3   635.00  
 145    1:30       0   17.3    99   13.6   280    -99    17.1   635.00  
 145    1:40       0   17.2    98   12.5   284    -99    14.8   635.00  
 145    1:50       0   17.1    98   12.3   290    -99    14.8   635.00  
 145    2:00       0   17.0    98   13.4   284    -99    17.8   635.00  
 145    2:10       0   16.8    98   14.3   286    -99    17.0   634.50  
 145    2:20       0   16.3    98   15.1   290    -99    18.1   634.50  
 145    2:30       0   16.1    98   14.3   292    -99    18.2   634.50  
 145    2:40       0   16.1    98   12.3   289    -99    15.3   634.50  
 145    2:50       0   16.1    98   11.1   287    -99    13.4   634.50  
 145    3:00       0   16.1    98   12.3   293    -99    15.1   634.50  
 145    3:10       0   16.1    98   13.1   290    -99    16.2   634.50  
 145    3:20       0   16.1    98   13.9   290    -99    17.7   634.50  
 145    3:30       0   15.9    98   14.2   291    -99    16.6   634.50  
 145    3:40       0   15.7    98   14.3   292    -99    16.7   634.50  
 145    3:50       0   15.7    98   13.8   288    -99    16.7   634.50  
 145    4:00       0   15.5    98   12.2   289    -99    16.0   634.50  
 145    4:10       0   15.1    98   12.7   282    -99    15.1   634.30  
 145    4:20       0   14.4    97   12.7   282    -99    15.3   634.30  
 145    4:30       1   14.1    97   12.6   280    -99    15.4   634.30  
 145    4:40       3   14.0    98   12.9   287    -99    14.7   634.30  
 145    4:50       7   14.4    98   12.0   285    -99    14.7   634.30  
 145    5:00      10   14.6    98   12.2   289    -99    14.8   634.30  
 145    5:10      14   15.1    98   12.2   286    -99    16.4   634.40  
 145    5:20      21   15.0    98   12.0   288    -99    15.7   634.40  
 145    5:30      54   15.0    98   11.9   290    -99    14.2   634.40  
 145    5:40     152   15.6    98   11.8   290    -99    13.5   634.40  
 145    5:50     213   16.7    97   11.7   288    -99    13.7   634.40  
 145    6:00     232   17.4    97   11.7   287    -99    13.5   634.40  
 145    6:10     251   17.8    96   11.3   289    -99    14.0   634.70  
 145    6:20     291   18.4    97   11.5   290    -99    13.6   634.70  
 145    6:30     328   19.0    96   11.9   290    -99    14.8   634.70  
 145    6:40     366   19.5    96   12.1   291    -99    14.5   634.70  
 145    6:50     403   19.9    96   12.0   291    -99    15.5   634.70  
 145    7:00     437   20.3    97   12.4   291    -99    14.3   634.70  
 145    7:10     474   20.6    96   12.0   291    -99    13.8   635.00  
 145    7:20     512   21.1    97   10.6   293    -99    12.8   635.00  
 145    7:30     553   21.2    96    9.8   297    -99    12.6   635.00  
 145    7:40     594   21.4    96   10.4   295    -99    12.6   635.00  

Return to Barcroft Research Lab graphs page.


Western Regional Climate Center,wrcc@dri.edu